Time;durP1;ratioP1;P1;durP2;ratioP2;P2;SDS_P1;SDS_P2;PMS_P1;PMS_P2;Temp;Humidity;BMP_temperature;BMP_pressure;BME280_temperature;BME280_humidity;BME280_pressure;Samples;Min_cycle;Max_cycle;Signal;HPM_P1;HPM_P2
2024/03/12 00:01:08;;;;;;;61.10;7.50;;;;;;;;;;5015994;28;20876;-71
2024/03/12 00:03:35;;;;;;;59.90;7.20;;;;;;;;;;5022803;28;20467;-71
2024/03/12 00:06:02;;;;;;;62.00;7.93;;;;;;;;;;5015554;28;20454;-71
2024/03/12 00:08:29;;;;;;;61.30;7.80;;;;;;;;;;5023211;28;20472;-71
2024/03/12 00:10:56;;;;;;;62.00;7.70;;;;;;;;;;5014680;28;20452;-71
2024/03/12 00:13:26;;;;;;;61.20;7.73;;;;;;;;;;5023272;28;20449;-71
2024/03/12 00:15:54;;;;;;;61.43;6.93;;;;;;;;;;5017572;28;20494;-71
2024/03/12 00:18:24;;;;;;;60.97;7.23;;;;;;;;;;5019166;28;20923;-71
2024/03/12 00:20:52;;;;;;;61.40;7.20;;;;;;;;;;5022902;28;20527;-71
2024/03/12 00:23:20;;;;;;;62.47;7.90;;;;;;;;;;5021745;28;20545;-71
2024/03/12 00:25:47;;;;;;;63.73;8.20;;;;;;;;;;5015849;28;20979;-71
2024/03/12 00:28:14;;;;;;;60.10;7.83;;;;;;;;;;5021114;28;20473;-71
2024/03/12 00:30:42;;;;;;;61.97;7.30;;;;;;;;;;5016399;28;20452;-69
2024/03/12 00:33:10;;;;;;;61.87;7.90;;;;;;;;;;5022894;28;20463;-72
2024/03/12 00:35:39;;;;;;;61.90;8.40;;;;;;;;;;5022563;28;20486;-72
2024/03/12 00:38:06;;;;;;;61.40;6.93;;;;;;;;;;5014412;28;20585;-72
2024/03/12 00:40:35;;;;;;;60.80;7.10;;;;;;;;;;5014587;28;20862;-72
2024/03/12 00:43:02;;;;;;;61.17;7.67;;;;;;;;;;5014794;28;20834;-70
2024/03/12 00:45:36;;;;;;;64.10;7.67;;;;;;;;;;5014604;28;20506;-70
2024/03/12 00:48:05;;;;;;;61.00;8.10;;;;;;;;;;5018540;28;20558;-70
2024/03/12 00:50:33;;;;;;;61.80;8.57;;;;;;;;;;5026650;28;20511;-70
2024/03/12 00:53:01;;;;;;;62.20;8.97;;;;;;;;;;5025788;28;20485;-70
2024/03/12 00:55:29;;;;;;;62.00;7.37;;;;;;;;;;5034211;28;20579;-70
2024/03/12 00:57:57;;;;;;;61.67;7.53;;;;;;;;;;5033886;28;20990;-71
2024/03/12 01:00:26;;;;;;;63.40;7.70;;;;;;;;;;5032628;28;20521;-71
2024/03/12 01:02:54;;;;;;;62.03;7.87;;;;;;;;;;5023503;28;20825;-70
2024/03/12 01:05:25;;;;;;;64.00;8.20;;;;;;;;;;5029488;28;20444;-70
2024/03/12 01:07:58;;;;;;;60.00;7.70;;;;;;;;;;5033849;28;20472;-70
2024/03/12 01:10:26;;;;;;;62.00;8.43;;;;;;;;;;5033920;28;20505;-70
2024/03/12 01:12:54;;;;;;;60.30;7.00;;;;;;;;;;5033660;28;20455;-70
2024/03/12 01:15:23;;;;;;;62.87;7.17;;;;;;;;;;5033308;28;20509;-70
2024/03/12 01:17:51;;;;;;;62.10;8.60;;;;;;;;;;5022841;28;20514;-70
2024/03/12 01:20:20;;;;;;;62.20;7.90;;;;;;;;;;5013910;28;20476;-70
2024/03/12 01:22:50;;;;;;;59.97;7.90;;;;;;;;;;5013878;28;20470;-71
2024/03/12 01:25:17;;;;;;;64.43;9.18;;;;;;;;;;5013840;28;20844;-71
2024/03/12 01:27:44;;;;;;;61.60;8.00;;;;;;;;;;5013434;28;20238;-71
2024/03/12 01:30:16;;;;;;;61.97;8.33;;;;;;;;;;5013467;28;20452;-71
2024/03/12 01:32:44;;;;;;;60.93;8.50;;;;;;;;;;5013569;28;20455;-71
2024/03/12 01:35:12;;;;;;;68.77;9.10;;;;;;;;;;5013172;28;20557;-70
2024/03/12 01:37:41;;;;;;;63.00;9.40;;;;;;;;;;5013205;28;20485;-70
2024/03/12 01:40:21;;;;;;;61.90;8.37;;;;;;;;;;5013414;28;20478;-71
2024/03/12 01:42:49;;;;;;;62.60;8.93;;;;;;;;;;5013199;28;21014;-71
2024/03/12 01:45:17;;;;;;;62.13;8.88;;;;;;;;;;5013302;28;21029;-70
2024/03/12 01:47:45;;;;;;;62.30;9.03;;;;;;;;;;5013067;28;20235;-71
2024/03/12 01:50:12;;;;;;;63.47;9.00;;;;;;;;;;5013248;28;20484;-71
2024/03/12 01:52:39;;;;;;;66.40;9.00;;;;;;;;;;5012836;28;20448;-71
2024/03/12 01:55:07;;;;;;;64.63;9.50;;;;;;;;;;5012976;28;20227;-71
2024/03/12 01:57:36;;;;;;;62.45;9.25;;;;;;;;;;5012848;28;20229;-70
2024/03/12 02:00:10;;;;;;;64.37;8.90;;;;;;;;;;5012635;28;20208;-70
2024/03/12 02:02:37;;;;;;;64.40;8.70;;;;;;;;;;5012856;28;20539;-70
2024/03/12 02:05:05;;;;;;;61.75;8.25;;;;;;;;;;5012964;28;20458;-70
2024/03/12 02:07:33;;;;;;;62.58;8.55;;;;;;;;;;5012730;28;20319;-70
2024/03/12 02:10:01;;;;;;;61.25;8.18;;;;;;;;;;5013101;28;20227;-71
2024/03/12 02:12:28;;;;;;;62.28;8.82;;;;;;;;;;5012578;28;20303;-71
2024/03/12 02:14:56;;;;;;;61.00;8.80;;;;;;;;;;5012913;28;20327;-71
2024/03/12 02:17:23;;;;;;;61.13;8.35;;;;;;;;;;5012553;28;20589;-71
2024/03/12 02:19:50;;;;;;;62.45;9.15;;;;;;;;;;5012544;28;20208;-71
2024/03/12 02:22:18;;;;;;;63.28;9.60;;;;;;;;;;5012511;28;20210;-71
2024/03/12 02:24:47;;;;;;;63.25;8.75;;;;;;;;;;5012869;28;20286;-71
2024/03/12 02:27:14;;;;;;;65.03;8.55;;;;;;;;;;5012411;28;20234;-71
2024/03/12 02:29:41;;;;;;;62.40;8.20;;;;;;;;;;5012269;28;20687;-71
2024/03/12 02:32:08;;;;;;;63.65;9.23;;;;;;;;;;5012705;28;20224;-71
2024/03/12 02:34:35;;;;;;;61.67;9.07;;;;;;;;;;5012330;28;20810;-71
2024/03/12 02:37:02;;;;;;;65.97;8.93;;;;;;;;;;5012497;28;20240;-70
2024/03/12 02:39:30;;;;;;;63.15;8.05;;;;;;;;;;5012563;28;20212;-72
2024/03/12 02:41:59;;;;;;;60.97;8.80;;;;;;;;;;5012103;28;20212;-71
2024/03/12 02:44:26;;;;;;;63.05;8.40;;;;;;;;;;5012493;28;20222;-71
2024/03/12 02:46:54;;;;;;;61.15;7.47;;;;;;;;;;5011283;28;20228;-69
2024/03/12 02:49:23;;;;;;;63.15;10.23;;;;;;;;;;5012302;28;20204;-71
2024/03/12 02:51:50;;;;;;;62.28;9.00;;;;;;;;;;5012070;28;20264;-71
2024/03/12 02:54:17;;;;;;;61.00;7.85;;;;;;;;;;5012705;28;20243;-71
2024/03/12 02:56:44;;;;;;;60.67;7.80;;;;;;;;;;5011695;28;20233;-71
2024/03/12 02:59:13;;;;;;;61.78;7.65;;;;;;;;;;5011992;28;20211;-71
2024/03/12 03:01:40;;;;;;;59.95;7.55;;;;;;;;;;5012073;28;20252;-70
2024/03/12 03:04:08;;;;;;;60.83;7.80;;;;;;;;;;5012084;28;20740;-70
2024/03/12 03:06:35;;;;;;;61.45;8.00;;;;;;;;;;5012265;28;20318;-71
2024/03/12 03:09:05;;;;;;;60.07;7.10;;;;;;;;;;5012122;28;20204;-71
2024/03/12 03:11:32;;;;;;;63.25;8.02;;;;;;;;;;5011422;28;20940;-71
2024/03/12 03:13:59;;;;;;;61.20;7.60;;;;;;;;;;5011425;28;20211;-71
2024/03/12 03:16:28;;;;;;;61.92;8.20;;;;;;;;;;5011496;28;20232;-71
2024/03/12 03:18:57;;;;;;;61.03;8.15;;;;;;;;;;5011655;28;20266;-71
2024/03/12 03:21:24;;;;;;;62.10;7.90;;;;;;;;;;5011794;28;20299;-70
2024/03/12 03:23:51;;;;;;;65.18;8.70;;;;;;;;;;5010909;28;20680;-71
2024/03/12 03:26:18;;;;;;;61.15;7.35;;;;;;;;;;5011080;28;20204;-70
2024/03/12 03:28:45;;;;;;;62.92;8.40;;;;;;;;;;5011841;28;20215;-71
2024/03/12 03:31:12;;;;;;;60.20;7.35;;;;;;;;;;5011806;28;20212;-70
2024/03/12 03:33:43;;;;;;;64.40;8.35;;;;;;;;;;5011465;28;20222;-70
2024/03/12 03:36:10;;;;;;;61.05;7.68;;;;;;;;;;5011363;28;20224;-70
2024/03/12 03:38:40;;;;;;;59.85;6.93;;;;;;;;;;5027678;28;20214;-71
2024/03/12 03:41:07;;;;;;;63.93;7.73;;;;;;;;;;5003719;28;20212;-72
2024/03/12 03:43:35;;;;;;;63.05;7.78;;;;;;;;;;5011864;28;20451;-70
2024/03/12 03:46:03;;;;;;;60.63;7.05;;;;;;;;;;5011178;28;20210;-70
2024/03/12 03:48:30;;;;;;;60.63;7.45;;;;;;;;;;5011709;28;20236;-70
2024/03/12 03:50:59;;;;;;;60.38;7.45;;;;;;;;;;5011459;28;20265;-70
2024/03/12 03:53:27;;;;;;;60.30;7.33;;;;;;;;;;5011311;28;20674;-70
2024/03/12 03:55:55;;;;;;;59.80;7.20;;;;;;;;;;5011321;28;20495;-70
2024/03/12 03:58:22;;;;;;;61.13;9.00;;;;;;;;;;5011377;28;20248;-70
2024/03/12 04:00:51;;;;;;;61.10;8.37;;;;;;;;;;5011378;28;20452;-70
2024/03/12 04:03:18;;;;;;;66.07;8.13;;;;;;;;;;5011393;28;20455;-71
2024/03/12 04:05:45;;;;;;;59.37;7.67;;;;;;;;;;5010892;28;20456;-70
2024/03/12 04:08:14;;;;;;;61.63;7.55;;;;;;;;;;5011316;28;20476;-70
2024/03/12 04:10:42;;;;;;;61.45;8.25;;;;;;;;;;5011332;28;20238;-71
2024/03/12 04:13:09;;;;;;;61.80;8.70;;;;;;;;;;5011336;28;20212;-70
2024/03/12 04:15:36;;;;;;;63.95;8.60;;;;;;;;;;5011298;28;20998;-70
2024/03/12 04:18:04;;;;;;;61.67;8.38;;;;;;;;;;5010943;28;20230;-70
2024/03/12 04:20:31;;;;;;;61.53;7.50;;;;;;;;;;5011027;28;20209;-70
2024/03/12 04:22:58;;;;;;;62.83;8.20;;;;;;;;;;5011360;28;20455;-70
2024/03/12 04:25:28;;;;;;;62.37;8.40;;;;;;;;;;5025533;28;20534;-70
2024/03/12 04:27:55;;;;;;;61.47;9.03;;;;;;;;;;5030608;28;20967;-71
2024/03/12 04:30:22;;;;;;;60.60;8.13;;;;;;;;;;5030820;28;20465;-70
2024/03/12 04:32:50;;;;;;;60.13;7.57;;;;;;;;;;5030693;28;20448;-70
2024/03/12 04:35:17;;;;;;;61.47;6.37;;;;;;;;;;5033136;28;20494;-70
2024/03/12 04:37:44;;;;;;;60.53;7.37;;;;;;;;;;5034072;28;20487;-70
2024/03/12 04:40:12;;;;;;;60.90;7.80;;;;;;;;;;5034421;28;20454;-70
2024/03/12 04:42:43;;;;;;;60.90;7.07;;;;;;;;;;5034903;28;20451;-70
2024/03/12 04:45:10;;;;;;;65.40;7.70;;;;;;;;;;5006943;28;20543;-70
2024/03/12 04:47:40;;;;;;;60.67;7.20;;;;;;;;;;5014176;28;20480;-71
2024/03/12 04:50:09;;;;;;;60.30;6.80;;;;;;;;;;5014693;28;20464;-71
2024/03/12 04:52:36;;;;;;;58.87;6.37;;;;;;;;;;5014491;28;20452;-71
2024/03/12 04:55:04;;;;;;;59.43;7.07;;;;;;;;;;5014069;28;20470;-71
2024/03/12 04:57:32;;;;;;;59.47;6.80;;;;;;;;;;5014003;28;20515;-71
2024/03/12 05:00:01;;;;;;;65.30;7.67;;;;;;;;;;5014004;28;20452;-71
2024/03/12 05:02:28;;;;;;;60.30;6.97;;;;;;;;;;5014465;28;20681;-71
2024/03/12 05:04:55;;;;;;;61.50;6.70;;;;;;;;;;5014385;28;20535;-71
2024/03/12 05:07:22;;;;;;;60.47;5.80;;;;;;;;;;5014043;28;20474;-71
2024/03/12 05:09:49;;;;;;;59.97;6.83;;;;;;;;;;5023122;28;20451;-71
2024/03/12 05:12:16;;;;;;;58.30;5.20;;;;;;;;;;5033953;28;20451;-71
2024/03/12 05:14:43;;;;;;;58.33;5.23;;;;;;;;;;5033709;28;20461;-71
2024/03/12 05:17:11;;;;;;;61.17;6.13;;;;;;;;;;5013867;28;20613;-71
2024/03/12 05:19:39;;;;;;;63.87;9.37;;;;;;;;;;5013874;28;20455;-71
2024/03/12 05:22:07;;;;;;;68.80;12.97;;;;;;;;;;5013852;28;20796;-71
2024/03/12 05:24:35;;;;;;;74.30;15.70;;;;;;;;;;5013896;28;20505;-71
2024/03/12 05:27:02;;;;;;;74.93;16.93;;;;;;;;;;5013462;28;20494;-71
2024/03/12 05:29:36;;;;;;;72.23;15.00;;;;;;;;;;5013684;28;20949;-71
2024/03/12 05:32:17;;;;;;;71.53;13.67;;;;;;;;;;5013773;28;20452;-71
2024/03/12 05:34:45;;;;;;;68.87;12.93;;;;;;;;;;5013707;28;20452;-71
2024/03/12 05:37:28;;;;;;;64.73;11.60;;;;;;;;;;5005643;28;20493;-71
2024/03/12 05:40:11;;;;;;;71.40;17.70;;;;;;;;;;5013767;28;20459;-71
2024/03/12 05:48:10;;;;;;;72.73;16.33;;;;;;;;;;5033009;28;20469;-71
2024/03/12 05:50:39;;;;;;;70.77;13.80;;;;;;;;;;5033097;28;20446;-71
2024/03/12 05:53:06;;;;;;;70.33;16.13;;;;;;;;;;5033202;28;20447;-71
2024/03/12 05:55:34;;;;;;;68.63;14.63;;;;;;;;;;5032565;28;21011;-71
2024/03/12 05:58:01;;;;;;;63.90;10.10;;;;;;;;;;5014321;28;20507;-71
2024/03/12 06:00:28;;;;;;;63.13;9.20;;;;;;;;;;5021128;28;20456;-71
2024/03/12 06:02:55;;;;;;;71.37;10.13;;;;;;;;;;5030865;28;20456;-71
2024/03/12 06:05:22;;;;;;;77.40;17.77;;;;;;;;;;5032842;28;20459;-71
2024/03/12 06:07:52;;;;;;;74.50;17.40;;;;;;;;;;5032416;28;21005;-71
2024/03/12 06:10:19;;;;;;;71.83;13.83;;;;;;;;;;5032745;28;20467;-71
2024/03/12 06:12:47;;;;;;;79.87;18.57;;;;;;;;;;5032604;28;20455;-72
2024/03/12 06:15:14;;;;;;;74.97;15.53;;;;;;;;;;5032568;28;20454;-71
2024/03/12 06:17:41;;;;;;;73.57;15.60;;;;;;;;;;5032506;28;20594;-73
2024/03/12 06:20:12;;;;;;;71.27;13.17;;;;;;;;;;5012842;28;20448;-71
2024/03/12 06:22:39;;;;;;;68.93;11.50;;;;;;;;;;5012882;28;20457;-72
2024/03/12 06:25:10;;;;;;;69.33;11.17;;;;;;;;;;5012735;28;20519;-72
2024/03/12 06:27:37;;;;;;;67.00;11.67;;;;;;;;;;5012344;28;20472;-71
2024/03/12 06:30:05;;;;;;;70.23;12.67;;;;;;;;;;5012724;28;20449;-72
2024/03/12 06:32:33;;;;;;;83.10;18.00;;;;;;;;;;5012735;28;20840;-72
2024/03/12 06:35:00;;;;;;;71.70;12.67;;;;;;;;;;5014375;28;20472;-72
2024/03/12 06:37:27;;;;;;;74.77;15.00;;;;;;;;;;5031993;28;20497;-72
2024/03/12 06:39:54;;;;;;;77.27;19.03;;;;;;;;;;5014910;28;20454;-72
2024/03/12 06:42:29;;;;;;;75.90;18.30;;;;;;;;;;5012707;28;20449;-72
2024/03/12 06:44:56;;;;;;;71.23;14.50;;;;;;;;;;5012488;28;20548;-72
2024/03/12 06:47:24;;;;;;;68.20;10.00;;;;;;;;;;5012038;28;20477;-71
2024/03/12 06:49:51;;;;;;;68.73;11.70;;;;;;;;;;5012472;28;20472;-71
2024/03/12 06:52:18;;;;;;;65.43;11.43;;;;;;;;;;5012168;28;20457;-72
2024/03/12 06:54:45;;;;;;;67.70;11.93;;;;;;;;;;5012188;28;20528;-72
2024/03/12 06:57:13;;;;;;;65.83;12.00;;;;;;;;;;5011378;28;21052;-72
2024/03/12 06:59:43;;;;;;;63.77;9.57;;;;;;;;;;5011905;28;20450;-71
2024/03/12 07:02:11;;;;;;;66.00;12.30;;;;;;;;;;5012120;28;20472;-71
2024/03/12 07:04:46;;;;;;;69.30;13.33;;;;;;;;;;5012128;28;20472;-71
2024/03/12 07:07:18;;;;;;;67.40;12.83;;;;;;;;;;5011753;28;20474;-71
2024/03/12 07:09:45;;;;;;;67.60;12.20;;;;;;;;;;5012205;28;20485;-71
2024/03/12 07:12:14;;;;;;;66.50;12.20;;;;;;;;;;5011802;28;20449;-71
2024/03/12 07:14:45;;;;;;;63.97;10.27;;;;;;;;;;5011955;28;20509;-71
2024/03/12 07:17:12;;;;;;;65.60;10.07;;;;;;;;;;5022803;28;20550;-71
2024/03/12 07:19:39;;;;;;;63.37;10.60;;;;;;;;;;5031295;28;20445;-71
2024/03/12 07:22:07;;;;;;;64.20;10.97;;;;;;;;;;5031459;28;20448;-71
2024/03/12 07:24:35;;;;;;;62.53;9.67;;;;;;;;;;5031828;28;20449;-71
2024/03/12 07:27:03;;;;;;;64.23;8.60;;;;;;;;;;5031197;28;20466;-71
2024/03/12 07:29:32;;;;;;;62.70;8.20;;;;;;;;;;5031539;28;20500;-71
2024/03/12 07:32:02;;;;;;;70.47;10.10;;;;;;;;;;5031344;28;21026;-71
2024/03/12 07:34:29;;;;;;;63.30;10.13;;;;;;;;;;5031703;28;20564;-71
2024/03/12 07:36:57;;;;;;;62.30;8.43;;;;;;;;;;5031120;28;20519;-71
2024/03/12 07:39:31;;;;;;;61.43;8.67;;;;;;;;;;5031601;28;20893;-71
2024/03/12 07:41:59;;;;;;;61.93;8.53;;;;;;;;;;5031242;28;20949;-71
2024/03/12 07:44:26;;;;;;;62.30;8.10;;;;;;;;;;5031294;28;20464;-71
2024/03/12 07:46:54;;;;;;;63.90;8.23;;;;;;;;;;5031040;28;21013;-71
2024/03/12 07:49:23;;;;;;;61.20;7.10;;;;;;;;;;5031237;28;20459;-71
2024/03/12 07:51:50;;;;;;;61.13;7.67;;;;;;;;;;5031302;28;20492;-71
2024/03/12 07:54:18;;;;;;;61.50;7.90;;;;;;;;;;5011503;28;20450;-71
2024/03/12 07:56:48;;;;;;;59.30;6.83;;;;;;;;;;5011168;28;20550;-71
2024/03/12 07:59:16;;;;;;;60.47;6.23;;;;;;;;;;5011039;28;20554;-72
2024/03/12 08:01:44;;;;;;;59.60;5.97;;;;;;;;;;5014570;28;20511;-71
2024/03/12 08:04:12;;;;;;;61.47;5.77;;;;;;;;;;5019543;28;20488;-71
2024/03/12 08:06:41;;;;;;;59.47;6.10;;;;;;;;;;5017833;28;20472;-71
2024/03/12 08:09:08;;;;;;;59.70;5.70;;;;;;;;;;5015523;28;20455;-71
2024/03/12 08:11:36;;;;;;;59.30;5.93;;;;;;;;;;5026538;28;20453;-71
2024/03/12 08:14:03;;;;;;;61.47;6.70;;;;;;;;;;5027777;28;20461;-72
2024/03/12 08:16:31;;;;;;;59.10;5.87;;;;;;;;;;5026671;28;20492;-71
2024/03/12 08:18:58;;;;;;;60.70;6.23;;;;;;;;;;5034762;28;20959;-71
2024/03/12 08:21:27;;;;;;;60.30;7.17;;;;;;;;;;5034884;28;20829;-71
2024/03/12 08:23:56;;;;;;;64.40;6.80;;;;;;;;;;5031790;28;20500;-71
2024/03/12 08:26:23;;;;;;;60.97;6.10;;;;;;;;;;5014455;28;21240;-71
2024/03/12 08:28:51;;;;;;;61.37;6.17;;;;;;;;;;5023216;28;20454;-71
2024/03/12 08:31:18;;;;;;;61.20;7.27;;;;;;;;;;5006929;28;20450;-71
2024/03/12 08:33:45;;;;;;;60.17;6.77;;;;;;;;;;5014916;28;20460;-71
2024/03/12 08:36:13;;;;;;;63.43;6.70;;;;;;;;;;5014478;28;20943;-71
2024/03/12 08:38:40;;;;;;;61.90;6.60;;;;;;;;;;5014806;28;20524;-71
2024/03/12 08:41:10;;;;;;;61.83;7.10;;;;;;;;;;5014870;28;20446;-71
2024/03/12 08:43:37;;;;;;;61.97;7.37;;;;;;;;;;5014797;28;20480;-71
2024/03/12 08:46:05;;;;;;;60.03;5.33;;;;;;;;;;5032130;28;21003;-71
2024/03/12 08:48:33;;;;;;;59.13;5.13;;;;;;;;;;5016907;28;20460;-71
2024/03/12 08:51:01;;;;;;;56.93;3.80;;;;;;;;;;5022427;28;20457;-71
2024/03/12 08:53:28;;;;;;;58.27;4.30;;;;;;;;;;5018907;28;20502;-71
2024/03/12 08:55:56;;;;;;;60.13;3.60;;;;;;;;;;5017580;28;20449;-71
2024/03/12 08:58:25;;;;;;;56.40;3.13;;;;;;;;;;5014526;28;20946;-71
2024/03/12 09:00:52;;;;;;;58.10;3.53;;;;;;;;;;5014462;28;20881;-71
2024/03/12 09:03:20;;;;;;;56.90;2.97;;;;;;;;;;5014306;28;20449;-71
2024/03/12 09:05:48;;;;;;;56.50;3.30;;;;;;;;;;5014045;28;20453;-71
2024/03/12 09:08:17;;;;;;;57.20;3.33;;;;;;;;;;5013953;28;20482;-71
2024/03/12 09:10:47;;;;;;;56.67;2.63;;;;;;;;;;5014111;28;21020;-71
2024/03/12 09:13:16;;;;;;;56.73;3.30;;;;;;;;;;5014698;28;20835;-71
2024/03/12 09:15:44;;;;;;;56.37;2.40;;;;;;;;;;5014123;28;20853;-71
2024/03/12 09:18:14;;;;;;;56.93;2.60;;;;;;;;;;5014199;28;20499;-71
2024/03/12 09:20:41;;;;;;;56.90;2.90;;;;;;;;;;5013082;28;20465;-71
2024/03/12 09:23:08;;;;;;;56.60;2.70;;;;;;;;;;5014063;28;20461;-71
2024/03/12 09:25:35;;;;;;;57.03;3.10;;;;;;;;;;5013992;28;20454;-71
2024/03/12 09:28:04;;;;;;;57.07;3.03;;;;;;;;;;5013593;28;20477;-71
2024/03/12 09:30:31;;;;;;;57.97;3.03;;;;;;;;;;5013730;28;20462;-71
2024/03/12 09:33:00;;;;;;;57.03;3.50;;;;;;;;;;5013514;28;20461;-71
2024/03/12 09:35:27;;;;;;;58.90;3.33;;;;;;;;;;5013646;28;20446;-71
2024/03/12 09:37:55;;;;;;;56.50;3.03;;;;;;;;;;5013206;28;21019;-70
2024/03/12 09:40:22;;;;;;;56.30;3.07;;;;;;;;;;5013533;28;20464;-70
2024/03/12 09:42:51;;;;;;;58.27;3.60;;;;;;;;;;5013563;28;20453;-70
2024/03/12 09:45:20;;;;;;;58.17;3.90;;;;;;;;;;5013360;28;20931;-70
2024/03/12 09:47:48;;;;;;;57.87;3.97;;;;;;;;;;5013431;28;20470;-70
2024/03/12 09:50:19;;;;;;;58.40;4.60;;;;;;;;;;5013509;28;20549;-70
2024/03/12 09:52:47;;;;;;;62.10;4.67;;;;;;;;;;5013322;28;20549;-70
2024/03/12 09:55:15;;;;;;;58.80;4.93;;;;;;;;;;5013344;28;20454;-70
2024/03/12 09:57:44;;;;;;;58.13;4.03;;;;;;;;;;5013023;28;20510;-70
2024/03/12 10:00:15;;;;;;;58.00;3.80;;;;;;;;;;5012992;28;20469;-70
2024/03/12 10:02:42;;;;;;;58.47;3.90;;;;;;;;;;5013455;28;20458;-70
2024/03/12 10:05:12;;;;;;;58.03;4.13;;;;;;;;;;5013114;28;20835;-71
2024/03/12 10:08:00;;;;;;;58.67;4.80;;;;;;;;;;5012929;28;20478;-71
2024/03/12 10:10:28;;;;;;;60.17;4.43;;;;;;;;;;5012904;28;20449;-71
2024/03/12 10:12:55;;;;;;;57.33;3.67;;;;;;;;;;5013121;28;20448;-71
2024/03/12 10:15:23;;;;;;;58.00;3.83;;;;;;;;;;5013090;28;20812;-71
2024/03/12 10:17:59;;;;;;;58.17;4.10;;;;;;;;;;5012728;28;20496;-71
2024/03/12 10:20:26;;;;;;;59.30;4.27;;;;;;;;;;5012931;28;20549;-70
2024/03/12 10:23:09;;;;;;;58.87;4.37;;;;;;;;;;5012701;28;20453;-71
2024/03/12 10:25:36;;;;;;;59.33;4.70;;;;;;;;;;5013043;28;20481;-72
2024/03/12 10:28:05;;;;;;;61.20;5.37;;;;;;;;;;5012548;28;20470;-71
2024/03/12 10:30:32;;;;;;;58.43;4.43;;;;;;;;;;5012530;28;20451;-71
2024/03/12 10:33:12;;;;;;;58.70;4.50;;;;;;;;;;5012460;28;20447;-72
2024/03/12 10:35:41;;;;;;;59.27;4.63;;;;;;;;;;5013158;28;20449;-70
2024/03/12 10:38:11;;;;;;;59.23;4.30;;;;;;;;;;5011922;28;20556;-70
2024/03/12 10:40:39;;;;;;;58.47;4.60;;;;;;;;;;5012500;28;20479;-70
2024/03/12 10:43:08;;;;;;;59.30;4.20;;;;;;;;;;5012422;28;20449;-70
2024/03/12 10:45:35;;;;;;;57.50;3.67;;;;;;;;;;5012404;28;20469;-70
2024/03/12 10:48:06;;;;;;;59.10;4.50;;;;;;;;;;5011953;28;20858;-70
2024/03/12 10:50:34;;;;;;;58.20;4.00;;;;;;;;;;5012524;28;20463;-70
2024/03/12 10:53:01;;;;;;;56.70;3.30;;;;;;;;;;5012551;28;20461;-70
2024/03/12 10:55:32;;;;;;;58.17;3.50;;;;;;;;;;5012269;28;20511;-70
2024/03/12 10:58:02;;;;;;;56.87;3.80;;;;;;;;;;5011994;28;20492;-70
2024/03/12 11:00:30;;;;;;;57.00;3.37;;;;;;;;;;5011939;28;20450;-70
2024/03/12 11:02:58;;;;;;;57.80;3.80;;;;;;;;;;5012262;28;20447;-70
2024/03/12 11:05:26;;;;;;;58.07;3.80;;;;;;;;;;5012050;28;20465;-70
2024/03/12 11:07:55;;;;;;;57.47;3.47;;;;;;;;;;5011868;28;20477;-70
2024/03/12 11:10:23;;;;;;;57.90;3.57;;;;;;;;;;5011934;28;20449;-70
2024/03/12 11:12:51;;;;;;;57.60;3.43;;;;;;;;;;5012076;28;20443;-71
2024/03/12 11:15:19;;;;;;;58.30;3.77;;;;;;;;;;5011935;28;20457;-71
2024/03/12 11:17:50;;;;;;;58.03;3.97;;;;;;;;;;5011710;28;20858;-71
2024/03/12 11:20:18;;;;;;;57.77;3.37;;;;;;;;;;5012245;28;20968;-71
2024/03/12 11:22:45;;;;;;;57.40;3.53;;;;;;;;;;5011910;28;20451;-71
2024/03/12 11:25:15;;;;;;;59.37;3.60;;;;;;;;;;5011732;28;20453;-71
2024/03/12 11:27:43;;;;;;;57.30;3.40;;;;;;;;;;5011513;28;20478;-70
2024/03/12 11:30:14;;;;;;;57.53;3.33;;;;;;;;;;5011838;28;20458;-70
2024/03/12 11:32:42;;;;;;;56.40;3.37;;;;;;;;;;5011899;28;20827;-70
2024/03/12 11:35:28;;;;;;;57.27;3.57;;;;;;;;;;5011805;28;20497;-70
2024/03/12 11:38:02;;;;;;;58.00;3.23;;;;;;;;;;5011097;28;20494;-70
2024/03/12 11:40:30;;;;;;;57.13;2.93;;;;;;;;;;5011731;28;20456;-70
2024/03/12 11:42:58;;;;;;;57.87;3.03;;;;;;;;;;5011751;28;20462;-70
2024/03/12 11:45:39;;;;;;;56.90;3.53;;;;;;;;;;5014718;28;20443;-70
2024/03/12 11:48:07;;;;;;;57.43;3.23;;;;;;;;;;5015423;28;20513;-70
2024/03/12 11:50:36;;;;;;;60.87;3.40;;;;;;;;;;5011438;28;20462;-70
2024/03/12 11:53:18;;;;;;;56.53;3.50;;;;;;;;;;5016793;28;20457;-72
2024/03/12 11:55:57;;;;;;;57.10;3.40;;;;;;;;;;5016321;28;20441;-71
2024/03/12 11:58:26;;;;;;;58.87;3.67;;;;;;;;;;5026569;28;20495;-71
2024/03/12 12:00:55;;;;;;;57.63;3.47;;;;;;;;;;5034722;28;20450;-71
2024/03/12 12:03:23;;;;;;;56.97;3.63;;;;;;;;;;5028409;28;20454;-69
2024/03/12 12:05:52;;;;;;;57.90;4.13;;;;;;;;;;5023442;28;20529;-71
2024/03/12 12:08:19;;;;;;;57.40;3.80;;;;;;;;;;5017258;28;20784;-70
2024/03/12 12:10:59;;;;;;;58.03;3.73;;;;;;;;;;5012505;28;20465;-69
2024/03/12 12:13:26;;;;;;;57.43;3.87;;;;;;;;;;5022568;28;20446;-69
2024/03/12 12:15:59;;;;;;;57.27;4.10;;;;;;;;;;5026638;28;20449;-70
2024/03/12 12:18:26;;;;;;;56.73;3.03;;;;;;;;;;5034425;28;20495;-70
2024/03/12 12:20:54;;;;;;;57.17;3.43;;;;;;;;;;5034647;28;20449;-70
2024/03/12 12:23:23;;;;;;;57.27;4.30;;;;;;;;;;5034559;28;20961;-70
2024/03/12 12:25:50;;;;;;;56.50;2.73;;;;;;;;;;5015195;28;20836;-70
2024/03/12 12:28:18;;;;;;;58.10;4.20;;;;;;;;;;5021400;28;20460;-70
2024/03/12 12:30:45;;;;;;;57.50;3.87;;;;;;;;;;5014697;28;20450;-70
2024/03/12 12:33:14;;;;;;;61.47;6.37;;;;;;;;;;5014779;28;20458;-70
2024/03/12 12:35:42;;;;;;;66.20;8.80;;;;;;;;;;5022721;28;20821;-70
2024/03/12 12:38:11;;;;;;;66.87;9.93;;;;;;;;;;5031472;28;20549;-70
2024/03/12 12:40:39;;;;;;;64.90;8.83;;;;;;;;;;5017083;28;20515;-70
2024/03/12 12:43:06;;;;;;;71.13;11.87;;;;;;;;;;5026184;28;20852;-70
2024/03/12 12:45:34;;;;;;;71.50;13.13;;;;;;;;;;5020237;28;20454;-71
2024/03/12 12:48:04;;;;;;;71.13;11.80;;;;;;;;;;5018586;28;20552;-71
2024/03/12 12:50:33;;;;;;;71.33;11.53;;;;;;;;;;5006661;28;20545;-71
2024/03/12 12:53:01;;;;;;;70.00;10.53;;;;;;;;;;5022321;28;20475;-70
2024/03/12 12:55:29;;;;;;;68.30;9.10;;;;;;;;;;5014954;28;20876;-71
2024/03/12 12:58:00;;;;;;;64.97;9.30;;;;;;;;;;5014208;28;20486;-71
2024/03/12 13:00:27;;;;;;;65.63;9.90;;;;;;;;;;5025211;28;20453;-71
2024/03/12 13:02:55;;;;;;;66.70;10.10;;;;;;;;;;5034191;28;20808;-71
2024/03/12 13:05:22;;;;;;;70.30;9.90;;;;;;;;;;5033706;28;20461;-71
2024/03/12 13:07:51;;;;;;;67.50;10.33;;;;;;;;;;5033903;28;20465;-71
2024/03/12 13:10:19;;;;;;;65.93;10.43;;;;;;;;;;5033907;28;20446;-70
2024/03/12 13:12:46;;;;;;;67.13;10.83;;;;;;;;;;5033918;28;20500;-70
2024/03/12 13:15:26;;;;;;;67.20;10.23;;;;;;;;;;5033581;28;20452;-70
2024/03/12 13:17:53;;;;;;;70.40;11.53;;;;;;;;;;5033351;28;20465;-70
2024/03/12 13:20:21;;;;;;;69.90;11.20;;;;;;;;;;5033807;28;20452;-70
2024/03/12 13:22:50;;;;;;;67.30;9.90;;;;;;;;;;5033913;28;20453;-70
2024/03/12 13:25:20;;;;;;;67.77;10.80;;;;;;;;;;5033730;28;20467;-71
2024/03/12 13:27:47;;;;;;;64.77;8.97;;;;;;;;;;5033743;28;20470;-71
2024/03/12 13:30:15;;;;;;;65.40;8.50;;;;;;;;;;5016433;28;20766;-71
2024/03/12 13:32:43;;;;;;;65.27;9.40;;;;;;;;;;5021900;28;20446;-71
2024/03/12 13:35:10;;;;;;;63.83;8.07;;;;;;;;;;5014379;28;20501;-71
2024/03/12 13:37:39;;;;;;;67.23;10.27;;;;;;;;;;5020716;28;20478;-71
2024/03/12 13:40:06;;;;;;;68.40;10.60;;;;;;;;;;5021478;28;21002;-71
2024/03/12 13:42:35;;;;;;;65.87;9.93;;;;;;;;;;5021700;28;20450;-71
2024/03/12 13:45:04;;;;;;;67.83;10.63;;;;;;;;;;5016957;28;21016;-71
2024/03/12 13:47:32;;;;;;;67.10;10.30;;;;;;;;;;5016247;28;20988;-71
2024/03/12 13:50:00;;;;;;;64.43;9.87;;;;;;;;;;5017897;28;20450;-71
2024/03/12 13:52:28;;;;;;;67.37;10.70;;;;;;;;;;5021367;28;20450;-71
2024/03/12 13:54:55;;;;;;;70.00;11.53;;;;;;;;;;5013324;28;20835;-71
2024/03/12 13:57:24;;;;;;;68.60;12.27;;;;;;;;;;5013078;28;20468;-71
2024/03/12 13:59:53;;;;;;;67.10;11.37;;;;;;;;;;5013167;28;20907;-71
2024/03/12 14:02:21;;;;;;;69.07;11.40;;;;;;;;;;5021004;28;20504;-71
2024/03/12 14:04:48;;;;;;;66.60;11.20;;;;;;;;;;5013257;28;20773;-71
2024/03/12 14:07:18;;;;;;;66.30;10.27;;;;;;;;;;5012397;28;20849;-71
2024/03/12 14:09:45;;;;;;;67.77;11.07;;;;;;;;;;5013437;28;20516;-71
2024/03/12 14:12:13;;;;;;;67.47;11.47;;;;;;;;;;5012685;28;20463;-71
2024/03/12 14:14:41;;;;;;;69.87;12.67;;;;;;;;;;5013226;28;20454;-71
2024/03/12 14:17:09;;;;;;;65.87;10.90;;;;;;;;;;5012628;28;20470;-71
2024/03/12 14:19:37;;;;;;;67.27;11.97;;;;;;;;;;5013419;28;20605;-71
2024/03/12 14:22:04;;;;;;;67.57;11.33;;;;;;;;;;5013097;28;20454;-72
2024/03/12 14:24:31;;;;;;;68.03;12.13;;;;;;;;;;5012263;28;20446;-71
2024/03/12 14:26:59;;;;;;;69.50;13.23;;;;;;;;;;5003460;28;20486;-71
2024/03/12 14:29:26;;;;;;;69.87;12.70;;;;;;;;;;5019654;28;20489;-70
2024/03/12 14:31:53;;;;;;;66.73;11.97;;;;;;;;;;5006657;28;20873;-71
2024/03/12 14:34:22;;;;;;;71.83;13.70;;;;;;;;;;5015574;28;20558;-71
2024/03/12 14:36:49;;;;;;;71.90;13.03;;;;;;;;;;5014021;28;20478;-71
2024/03/12 14:39:16;;;;;;;71.50;12.33;;;;;;;;;;5020405;28;20489;-71